Time;durP1;ratioP1;P1;durP2;ratioP2;P2;SDS_P1;SDS_P2;PMS_P1;PMS_P2;Temp;Humidity;BMP_temperature;BMP_pressure;BME280_temperature;BME280_humidity;BME280_pressure;Samples;Min_cycle;Max_cycle;Signal;HPM_P1;HPM_P2
2021/10/28 00:12:20;;;;;;;0.50;0.40;;;10.20;99.90;;;;;;5031488;28;20177;-78
2021/10/28 00:14:52;;;;;;;3.75;0.73;;;10.20;99.90;;;;;;5031589;28;20911;-77
2021/10/28 00:17:27;;;;;;;18.60;13.10;;;10.10;99.90;;;;;;5031643;28;20212;-77
2021/10/28 00:19:54;;;;;;;2.78;2.55;;;10.10;99.90;;;;;;5031020;28;20217;-77
2021/10/28 00:22:22;;;;;;;0.50;0.40;;;10.20;99.90;;;;;;5031434;28;20204;-78
2021/10/28 00:24:49;;;;;;;0.90;0.50;;;10.20;99.90;;;;;;5031254;28;20264;-77
2021/10/28 00:27:17;;;;;;;0.50;0.40;;;10.10;99.90;;;;;;5031795;28;20198;-78
2021/10/28 00:29:44;;;;;;;4.10;0.93;;;10.10;99.90;;;;;;5030937;28;20208;-77
2021/10/28 00:32:11;;;;;;;1.60;1.50;;;10.10;99.90;;;;;;5031543;28;20197;-78
2021/10/28 00:34:39;;;;;;;0.57;0.57;;;10.10;99.90;;;;;;5031021;28;20224;-77
2021/10/28 00:37:06;;;;;;;0.50;0.40;;;10.10;99.90;;;;;;5031605;28;20209;-78
2021/10/28 00:39:33;;;;;;;0.50;0.40;;;10.10;99.90;;;;;;5031157;28;20218;-78
2021/10/28 00:41:59;;;;;;;0.50;0.30;;;10.10;99.90;;;;;;5031349;28;20207;-77
2021/10/28 00:44:26;;;;;;;0.50;0.40;;;10.10;99.90;;;;;;5034971;28;20226;-77
2021/10/28 00:46:53;;;;;;;9.60;1.38;;;10.10;99.90;;;;;;5035161;28;20571;-78
2021/10/28 00:49:20;;;;;;;0.50;0.30;;;10.10;99.90;;;;;;5035467;28;20288;-78
2021/10/28 00:51:48;;;;;;;0.57;0.57;;;10.10;99.90;;;;;;5034605;28;20200;-78
2021/10/28 00:54:17;;;;;;;2.58;2.47;;;10.00;99.90;;;;;;5035024;28;20602;-77
2021/10/28 00:56:45;;;;;;;1.23;0.68;;;10.00;99.90;;;;;;5034840;28;20288;-77
2021/10/28 00:59:13;;;;;;;5.28;2.97;;;10.10;99.90;;;;;;5035490;28;20629;-78
2021/10/28 01:01:39;;;;;;;0.60;0.50;;;10.10;99.90;;;;;;5034720;28;20217;-76
2021/10/28 01:04:07;;;;;;;0.50;0.50;;;10.10;99.90;;;;;;5034220;28;20750;-78
2021/10/28 01:06:35;;;;;;;0.70;0.63;;;10.00;99.90;;;;;;5035221;28;20199;-79
2021/10/28 01:09:04;;;;;;;0.50;0.40;;;10.10;99.90;;;;;;5034686;28;20205;-77
2021/10/28 01:11:31;;;;;;;0.50;0.40;;;10.10;99.90;;;;;;5034570;28;20194;-77
2021/10/28 01:13:59;;;;;;;0.50;0.40;;;10.00;99.90;;;;;;5034940;28;20219;-77
2021/10/28 01:16:26;;;;;;;0.70;0.70;;;10.00;99.90;;;;;;5034917;28;20197;-78
2021/10/28 01:18:54;;;;;;;1.02;1.02;;;10.00;99.90;;;;;;5034759;28;20695;-77
2021/10/28 01:21:22;;;;;;;2.15;1.42;;;10.00;99.90;;;;;;5034423;28;20218;-78
2021/10/28 01:23:50;;;;;;;0.50;0.38;;;10.10;99.90;;;;;;5034254;28;20222;-75
2021/10/28 01:26:18;;;;;;;0.55;0.52;;;10.00;99.90;;;;;;5034683;28;20201;-78
2021/10/28 01:28:52;;;;;;;0.50;0.40;;;9.90;99.90;;;;;;5034567;28;20206;-78
2021/10/28 01:31:21;;;;;;;0.65;0.50;;;9.90;99.90;;;;;;5034150;28;20208;-78
2021/10/28 01:33:49;;;;;;;0.82;0.82;;;9.90;99.90;;;;;;5034697;28;20219;-78
2021/10/28 01:36:17;;;;;;;3.30;1.50;;;10.00;99.90;;;;;;5033807;28;20202;-77
2021/10/28 01:38:45;;;;;;;0.55;0.40;;;9.90;99.90;;;;;;5034355;28;20197;-77
2021/10/28 01:41:12;;;;;;;1.60;1.50;;;9.90;99.90;;;;;;5033894;28;20553;-79
2021/10/28 01:43:39;;;;;;;8.38;2.25;;;9.90;99.90;;;;;;5034339;28;20217;-78
2021/10/28 01:46:06;;;;;;;0.80;0.80;;;9.90;99.90;;;;;;5033961;28;20201;-78
2021/10/28 01:48:37;;;;;;;0.50;0.40;;;9.90;99.90;;;;;;5034394;28;20299;-78
2021/10/28 01:51:04;;;;;;;0.80;0.52;;;9.80;99.90;;;;;;5033943;28;20666;-78
2021/10/28 01:53:31;;;;;;;0.50;0.30;;;9.90;99.90;;;;;;5033635;28;20316;-78
2021/10/28 01:55:59;;;;;;;0.60;0.50;;;9.90;99.90;;;;;;5033088;28;20209;-77
2021/10/28 01:58:26;;;;;;;0.50;0.40;;;9.90;99.90;;;;;;5034073;28;20206;-78
2021/10/28 02:00:53;;;;;;;0.50;0.50;;;9.80;99.90;;;;;;5033225;28;20216;-77
2021/10/28 02:03:20;;;;;;;0.50;0.40;;;9.80;99.90;;;;;;5033885;28;20253;-78
2021/10/28 02:05:48;;;;;;;0.50;0.40;;;9.80;99.90;;;;;;5033863;28;20209;-78
2021/10/28 02:08:15;;;;;;;17.40;1.83;;;9.80;99.90;;;;;;5033502;28;20204;-78
2021/10/28 02:10:42;;;;;;;0.50;0.50;;;9.80;99.90;;;;;;5033649;28;20396;-77
2021/10/28 02:13:10;;;;;;;0.77;0.77;;;9.80;99.90;;;;;;5033669;28;20221;-77
2021/10/28 02:15:37;;;;;;;0.50;0.50;;;9.80;99.90;;;;;;5033658;28;20210;-78
2021/10/28 02:18:04;;;;;;;0.75;0.75;;;9.80;99.90;;;;;;5033592;28;20208;-77
2021/10/28 02:20:31;;;;;;;1.98;1.85;;;9.80;99.90;;;;;;5033089;28;20216;-79
2021/10/28 02:22:57;;;;;;;0.50;0.40;;;9.80;99.90;;;;;;5033532;28;20642;-78
2021/10/28 02:25:24;;;;;;;0.93;0.93;;;9.80;99.90;;;;;;5033549;28;20211;-78
2021/10/28 02:27:52;;;;;;;0.50;0.40;;;9.80;99.90;;;;;;5033129;28;20200;-77
2021/10/28 02:30:20;;;;;;;0.50;0.50;;;9.80;99.90;;;;;;5033506;28;20193;-78
2021/10/28 02:32:47;;;;;;;1.70;1.33;;;9.80;99.90;;;;;;5033291;28;20197;-78
2021/10/28 02:35:15;;;;;;;1.25;0.70;;;9.70;99.90;;;;;;5033717;28;20304;-78
2021/10/28 02:37:42;;;;;;;1.02;0.98;;;9.80;99.90;;;;;;5033226;28;20192;-79
2021/10/28 02:40:10;;;;;;;0.80;0.77;;;9.70;99.90;;;;;;5032939;28;20245;-78
2021/10/28 02:42:37;;;;;;;2.25;0.88;;;9.80;99.90;;;;;;5033127;28;20204;-77
2021/10/28 02:45:05;;;;;;;0.50;0.30;;;9.80;99.90;;;;;;5033477;28;20328;-76
2021/10/28 02:47:33;;;;;;;1.25;1.15;;;9.80;99.90;;;;;;5032727;28;20204;-77
2021/10/28 02:50:00;;;;;;;4.88;1.52;;;9.80;99.90;;;;;;5032968;28;20201;-74
2021/10/28 02:52:27;;;;;;;1.20;1.20;;;9.80;99.90;;;;;;5032920;28;20292;-78
2021/10/28 02:54:54;;;;;;;0.50;0.40;;;9.70;99.90;;;;;;5032303;28;20220;-77
2021/10/28 02:57:22;;;;;;;3.72;1.83;;;9.70;99.90;;;;;;5101648;23;20257;-84
2021/10/28 02:59:49;;;;;;;1.60;1.40;;;9.70;99.90;;;;;;5044069;28;20206;-80
2021/10/28 03:02:16;;;;;;;1.35;1.25;;;9.70;99.90;;;;;;5061003;28;20233;-85
2021/10/28 03:04:44;;;;;;;0.50;0.40;;;9.70;99.90;;;;;;5066091;28;20202;-84
2021/10/28 03:07:10;;;;;;;3.10;1.25;;;9.70;99.90;;;;;;5048776;28;20283;-84
2021/10/28 03:09:37;;;;;;;0.50;0.30;;;9.70;99.90;;;;;;5049546;28;20197;-83
2021/10/28 03:12:06;;;;;;;0.60;0.60;;;9.70;99.90;;;;;;5048983;28;20203;-84
2021/10/28 03:14:36;;;;;;;0.50;0.40;;;9.70;99.90;;;;;;5048809;28;20197;-84
2021/10/28 03:17:13;;;;;;;0.50;0.40;;;9.60;99.90;;;;;;5049008;28;20225;-84
2021/10/28 03:19:46;;;;;;;0.50;0.40;;;9.60;99.90;;;;;;5049146;28;20188;-82
2021/10/28 03:27:43;;;;;;;0.50;0.40;;;9.60;99.90;;;;;;5036987;28;20333;-84
2021/10/28 03:30:11;;;;;;;0.88;0.85;;;9.60;99.90;;;;;;5036781;28;20197;-84
2021/10/28 03:32:38;;;;;;;0.50;0.50;;;9.60;99.90;;;;;;5037114;28;20207;-82
2021/10/28 03:35:08;;;;;;;0.50;0.40;;;9.60;99.90;;;;;;5036747;28;20237;-84
2021/10/28 03:37:40;;;;;;;0.50;0.40;;;9.60;99.90;;;;;;5037134;28;20254;-83
2021/10/28 03:43:24;;;;;;;0.50;0.40;;;9.60;99.90;;;;;;5006094;28;20207;-82
2021/10/28 04:08:35;;;;;;;0.50;0.40;;;9.40;99.90;;;;;;5035974;28;20170;-84
2021/10/28 04:16:59;;;;;;;0.50;0.40;;;9.50;99.90;;;;;;5035704;28;20371;-83
2021/10/28 04:19:35;;;;;;;1.83;1.67;;;9.50;99.90;;;;;;5032456;28;20206;-82
2021/10/28 04:30:15;;;;;;;0.50;0.40;;;9.40;99.90;;;;;;5042227;28;20182;-82
2021/10/28 04:32:42;;;;;;;0.50;0.40;;;9.40;99.90;;;;;;5042551;28;20238;-85
2021/10/28 04:35:10;;;;;;;0.50;0.40;;;9.40;99.90;;;;;;5041577;28;20194;-84
2021/10/28 04:37:38;;;;;;;0.50;0.40;;;9.30;99.90;;;;;;5041386;28;20219;-82
2021/10/28 04:40:06;;;;;;;0.50;0.40;;;9.20;99.90;;;;;;5042340;28;20230;-82
2021/10/28 04:42:35;;;;;;;0.50;0.40;;;9.20;99.90;;;;;;5041454;28;20595;-83
2021/10/28 04:45:02;;;;;;;0.50;0.40;;;9.10;99.90;;;;;;5041682;28;20203;-84
2021/10/28 04:47:29;;;;;;;1.50;1.40;;;9.10;99.90;;;;;;5040568;28;20720;-83
2021/10/28 04:49:55;;;;;;;4.80;1.70;;;9.10;99.90;;;;;;5042700;28;20201;-84
2021/10/28 04:52:22;;;;;;;1.05;0.98;;;9.10;99.90;;;;;;5040871;28;20202;-84
2021/10/28 04:54:49;;;;;;;0.50;0.40;;;9.20;99.90;;;;;;5041035;28;20291;-82
2021/10/28 04:57:16;;;;;;;0.50;0.40;;;9.10;99.90;;;;;;5041356;28;20230;-84
2021/10/28 04:59:44;;;;;;;0.50;0.40;;;9.10;99.90;;;;;;5042755;28;20197;-84
2021/10/28 05:02:11;;;;;;;0.50;0.40;;;8.90;99.90;;;;;;5041337;28;20223;-84
2021/10/28 05:04:38;;;;;;;0.50;0.40;;;8.90;99.90;;;;;;5041006;28;20207;-84
2021/10/28 05:07:05;;;;;;;0.50;0.40;;;8.90;99.90;;;;;;5041172;28;20233;-84
2021/10/28 05:09:33;;;;;;;0.50;0.40;;;8.80;99.90;;;;;;5042735;28;20193;-84
2021/10/28 05:12:00;;;;;;;0.50;0.40;;;8.80;99.90;;;;;;5040792;28;20216;-83
2021/10/28 05:14:27;;;;;;;0.50;0.38;;;8.80;99.90;;;;;;5040964;28;20200;-85
2021/10/28 05:16:58;;;;;;;0.60;0.60;;;8.80;99.90;;;;;;5041590;28;20217;-84
2021/10/28 05:19:25;;;;;;;0.80;0.80;;;8.90;99.90;;;;;;5042340;28;20193;-84
2021/10/28 05:21:52;;;;;;;1.35;1.25;;;9.00;99.90;;;;;;5041325;28;20224;-84
2021/10/28 05:24:18;;;;;;;0.50;0.30;;;9.10;99.90;;;;;;5041053;28;20605;-85
2021/10/28 05:26:45;;;;;;;1.75;1.55;;;9.10;99.90;;;;;;5040768;28;20221;-83
2021/10/28 05:29:12;;;;;;;0.50;0.40;;;9.10;99.90;;;;;;5041787;28;20209;-84
2021/10/28 05:31:39;;;;;;;0.73;0.73;;;9.10;99.90;;;;;;5045127;28;20197;-84
2021/10/28 05:34:07;;;;;;;0.50;0.40;;;9.10;99.90;;;;;;5044711;28;20202;-84
2021/10/28 05:36:34;;;;;;;0.55;0.52;;;9.10;99.90;;;;;;5048690;28;20226;-83
2021/10/28 05:39:00;;;;;;;0.50;0.50;;;9.10;99.90;;;;;;5044583;28;20203;-84
2021/10/28 05:41:28;;;;;;;2.25;0.82;;;9.10;99.90;;;;;;5047544;28;20285;-83
2021/10/28 05:43:54;;;;;;;0.55;0.55;;;9.10;99.90;;;;;;5057158;28;20196;-83
2021/10/28 05:46:21;;;;;;;2.70;1.33;;;9.10;99.90;;;;;;5046906;28;20225;-84
2021/10/28 05:48:48;;;;;;;0.50;0.40;;;9.20;99.90;;;;;;5043757;28;20212;-83
2021/10/28 05:51:17;;;;;;;0.60;0.60;;;9.20;99.90;;;;;;5044446;28;20198;-83
2021/10/28 05:53:44;;;;;;;2.45;2.00;;;9.30;99.90;;;;;;5043754;28;20202;-83
2021/10/28 05:56:11;;;;;;;0.50;0.40;;;9.30;99.90;;;;;;5044615;28;20227;-84
2021/10/28 05:58:38;;;;;;;0.50;0.40;;;9.40;99.90;;;;;;5042925;28;20207;-86
2021/10/28 06:01:05;;;;;;;0.50;0.40;;;9.40;99.90;;;;;;5043358;28;20220;-84
2021/10/28 06:03:32;;;;;;;1.85;1.75;;;9.40;99.90;;;;;;5042498;28;20266;-82
2021/10/28 06:05:59;;;;;;;2.83;1.58;;;9.50;99.90;;;;;;5042230;28;20219;-84
2021/10/28 06:08:27;;;;;;;2.78;2.25;;;9.50;99.90;;;;;;5042252;28;20204;-83
2021/10/28 06:10:54;;;;;;;0.50;0.40;;;9.60;99.90;;;;;;5043671;28;20197;-83
2021/10/28 06:13:22;;;;;;;0.60;0.60;;;9.60;99.90;;;;;;5043781;28;20666;-83
2021/10/28 06:15:49;;;;;;;0.50;0.40;;;9.60;99.90;;;;;;5042833;28;20660;-84
2021/10/28 06:18:37;;;;;;;4.80;1.30;;;9.60;99.90;;;;;;5044508;28;20196;-84
2021/10/28 06:21:04;;;;;;;1.67;1.58;;;9.70;99.90;;;;;;5046963;28;20181;-84
2021/10/28 06:23:32;;;;;;;2.95;2.45;;;9.80;99.90;;;;;;5050058;28;20205;-84
2021/10/28 06:25:59;;;;;;;1.50;1.25;;;9.80;99.90;;;;;;5050671;28;20225;-84
2021/10/28 06:28:26;;;;;;;0.50;0.40;;;9.90;99.90;;;;;;5050547;28;20265;-83
2021/10/28 06:30:53;;;;;;;0.50;0.40;;;10.00;99.90;;;;;;5050578;28;20261;-84
2021/10/28 06:33:21;;;;;;;1.77;1.67;;;10.00;99.90;;;;;;5050672;28;20203;-84
2021/10/28 06:35:49;;;;;;;0.50;0.38;;;10.00;99.90;;;;;;5049533;28;20220;-84
2021/10/28 06:38:15;;;;;;;7.43;2.50;;;10.00;99.90;;;;;;5050427;28;20251;-86
2021/10/28 06:40:44;;;;;;;0.60;0.40;;;10.10;99.90;;;;;;5049946;28;20202;-84
2021/10/28 06:43:11;;;;;;;0.50;0.40;;;10.20;99.90;;;;;;5050001;28;20218;-86
2021/10/28 06:45:38;;;;;;;1.05;0.95;;;10.20;99.90;;;;;;5049842;28;20193;-85
2021/10/28 06:48:06;;;;;;;0.50;0.40;;;10.20;99.90;;;;;;5049869;28;20209;-85
2021/10/28 06:50:40;;;;;;;0.50;0.40;;;10.30;99.90;;;;;;5049254;28;20204;-84
2021/10/28 06:53:11;;;;;;;1.77;1.67;;;10.30;99.90;;;;;;5050876;28;20292;-85
2021/10/28 06:55:43;;;;;;;3.80;1.67;;;10.40;99.90;;;;;;5050291;28;20182;-83
2021/10/28 07:03:40;;;;;;;0.50;0.50;;;10.60;99.90;;;;;;5050056;28;20655;-85
2021/10/28 07:06:10;;;;;;;1.15;1.05;;;10.90;99.90;;;;;;5049941;28;20229;-85
2021/10/28 07:08:39;;;;;;;2.90;1.05;;;11.50;99.90;;;;;;5050090;28;20250;-85
2021/10/28 07:11:10;;;;;;;1.15;0.80;;;11.90;99.90;;;;;;5049602;28;20210;-85
2021/10/28 07:13:39;;;;;;;5.25;5.05;;;12.30;99.90;;;;;;5049603;28;20315;-85
2021/10/28 07:16:14;;;;;;;0.50;0.40;;;12.80;99.90;;;;;;5048761;28;20250;-85
2021/10/28 07:18:51;;;;;;;0.50;0.40;;;13.50;99.90;;;;;;5050122;28;20183;-82
2021/10/28 07:27:28;;;;;;;0.60;0.60;;;15.30;99.90;;;;;;5049191;28;20470;-86
2021/10/28 07:33:05;;;;;;;0.50;0.30;;;17.10;99.90;;;;;;5031736;28;20427;-84
2021/10/28 07:35:47;;;;;;;2.30;2.20;;;17.50;99.90;;;;;;5048762;28;20512;-85
2021/10/28 07:38:47;;;;;;;0.70;0.70;;;18.20;99.90;;;;;;5049760;28;20799;-85
2021/10/28 07:55:26;;;;;;;1.27;0.67;;;20.50;99.90;;;;;;5049225;28;20834;-85
2021/10/28 07:58:13;;;;;;;0.97;0.87;;;20.80;99.90;;;;;;5054955;28;20473;-85
2021/10/28 08:14:54;;;;;;;0.50;0.40;;;22.20;93.10;;;;;;5052391;28;20433;-84
2021/10/28 08:20:11;;;;;;;0.50;0.40;;;22.30;93.00;;;;;;5052731;28;20499;-84
2021/10/28 08:22:41;;;;;;;0.50;0.30;;;23.60;90.50;;;;;;5051539;28;20463;-86
2021/10/28 08:30:37;;;;;;;0.60;0.53;;;25.50;75.40;;;;;;5050604;28;20450;-85
2021/10/28 08:33:04;;;;;;;1.13;0.97;;;26.10;73.50;;;;;;5051421;28;20436;-85
2021/10/28 08:35:34;;;;;;;0.50;0.30;;;26.10;70.20;;;;;;5051332;28;20468;-85
2021/10/28 08:38:01;;;;;;;1.37;1.37;;;25.70;73.50;;;;;;5051313;28;20461;-84
2021/10/28 08:40:28;;;;;;;0.50;0.30;;;25.40;71.40;;;;;;5049394;28;20467;-86
2021/10/28 08:42:57;;;;;;;0.50;0.40;;;25.40;71.70;;;;;;5050116;28;20474;-84
2021/10/28 08:45:23;;;;;;;0.50;0.30;;;25.10;71.20;;;;;;5048719;28;20442;-85
2021/10/28 08:47:54;;;;;;;0.50;0.30;;;25.80;71.90;;;;;;5048312;28;20540;-85
2021/10/28 08:50:26;;;;;;;0.73;0.73;;;26.10;70.70;;;;;;5047862;28;20467;-86
2021/10/28 08:55:37;;;;;;;1.13;0.90;;;27.00;66.60;;;;;;5044950;28;20426;-86
2021/10/28 09:26:21;;;;;;;0.50;0.30;;;21.30;79.50;;;;;;5014331;28;20409;-77
2021/10/28 09:28:55;;;;;;;3.47;1.70;;;20.40;84.80;;;;;;5014727;28;20447;-78
2021/10/28 09:31:31;;;;;;;0.63;0.63;;;19.30;93.10;;;;;;5014376;28;20449;-75
2021/10/28 09:34:09;;;;;;;0.50;0.30;;;19.00;99.90;;;;;;5014557;28;20767;-77
2021/10/28 09:45:32;;;;;;;0.87;0.57;;;17.90;99.90;;;;;;5014155;28;20461;-76
2021/10/28 09:48:08;;;;;;;1.10;1.10;;;17.40;99.90;;;;;;5014485;28;20462;-76
2021/10/28 09:50:51;;;;;;;0.70;0.70;;;17.10;99.90;;;;;;5013585;28;20442;-77
2021/10/28 09:53:28;;;;;;;0.50;0.40;;;17.00;99.90;;;;;;5013874;28;20444;-78
2021/10/28 09:58:41;;;;;;;3.53;1.07;;;17.30;99.90;;;;;;5013721;28;20458;-77
2021/10/28 10:01:28;;;;;;;0.50;0.30;;;17.30;99.90;;;;;;5013600;28;20440;-77
2021/10/28 10:03:58;;;;;;;0.50;0.40;;;17.70;99.90;;;;;;5013341;28;20476;-77
2021/10/28 10:06:26;;;;;;;0.60;0.47;;;17.70;99.90;;;;;;5013763;28;20461;-77
2021/10/28 10:08:55;;;;;;;0.90;0.83;;;17.50;99.90;;;;;;5014105;28;20451;-77
2021/10/28 10:11:24;;;;;;;0.80;0.50;;;17.50;99.90;;;;;;5013492;28;20445;-76
2021/10/28 10:13:53;;;;;;;3.73;1.00;;;17.70;99.90;;;;;;5013585;28;20437;-77
2021/10/28 10:16:20;;;;;;;0.97;0.77;;;18.00;99.90;;;;;;5012844;28;20527;-74
2021/10/28 10:18:49;;;;;;;0.60;0.50;;;18.20;99.90;;;;;;5013530;28;20541;-78
2021/10/28 10:21:28;;;;;;;2.50;2.40;;;18.00;99.90;;;;;;5013994;28;20813;-77
2021/10/28 10:24:10;;;;;;;0.50;0.30;;;18.30;99.90;;;;;;5013765;28;20554;-78
2021/10/28 11:02:55;;;;;;;0.90;0.90;;;19.30;99.90;;;;;;5130822;27;20506;-77
2021/10/28 11:30:31;;;;;;;0.50;0.30;;;21.10;99.00;;;;;;5109678;28;20463;-78
2021/10/28 11:33:27;;;;;;;0.90;0.90;;;21.60;95.70;;;;;;5108587;28;20470;-77
2021/10/28 12:17:47;;;;;;;0.50;0.30;;;18.20;99.90;;;;;;5094039;28;20563;-78
2021/10/28 12:46:23;;;;;;;0.50;0.30;;;17.80;99.90;;;;;;5093031;28;20772;-77
2021/10/28 12:49:15;;;;;;;0.50;0.40;;;17.80;99.90;;;;;;5092902;28;20996;-77
2021/10/28 13:50:09;;;;;;;0.50;0.30;;;21.50;91.70;;;;;;5091928;28;20505;-77
2021/10/28 13:52:59;;;;;;;0.50;0.50;;;21.70;90.80;;;;;;5091704;28;21034;-78
2021/10/28 13:55:42;;;;;;;0.60;0.40;;;21.40;91.40;;;;;;5091284;28;20445;-78
2021/10/28 14:20:39;;;;;;;0.50;0.50;;;20.60;94.40;;;;;;5090530;28;20969;-74
2021/10/28 14:23:18;;;;;;;2.10;1.90;;;20.20;96.90;;;;;;5091481;28;20819;-77
2021/10/28 14:31:38;;;;;;;0.50;0.30;;;19.80;99.90;;;;;;5067837;28;20423;-78
2021/10/28 15:29:08;;;;;;;2.50;1.60;;;16.40;99.90;;;;;;5094498;28;20471;-77
2021/10/28 15:32:06;;;;;;;0.90;0.80;;;16.20;99.90;;;;;;5094459;28;20439;-76
2021/10/28 15:34:43;;;;;;;0.50;0.40;;;16.10;99.90;;;;;;5094206;28;20452;-77
2021/10/28 15:37:15;;;;;;;0.50;0.40;;;15.90;99.90;;;;;;5093911;28;20453;-77
2021/10/28 15:39:48;;;;;;;0.60;0.50;;;15.70;99.90;;;;;;5094616;28;20838;-77
2021/10/28 15:53:25;;;;;;;0.90;0.90;;;15.10;99.90;;;;;;5094124;28;20415;-76
2021/10/28 16:01:46;;;;;;;0.80;0.80;;;14.90;99.90;;;;;;5096359;28;20424;-79
2021/10/28 16:23:26;;;;;;;1.07;0.80;;;14.20;99.90;;;;;;5093977;28;20419;-78
2021/10/28 16:25:52;;;;;;;5.07;1.33;;;14.10;99.90;;;;;;5093874;28;20439;-78
2021/10/28 16:28:20;;;;;;;1.07;0.73;;;14.00;99.90;;;;;;5093437;28;20486;-79
2021/10/28 16:30:48;;;;;;;2.97;1.33;;;13.90;99.90;;;;;;5093549;28;20446;-77
2021/10/28 16:33:16;;;;;;;0.50;0.40;;;13.90;99.90;;;;;;5093555;28;20436;-78
2021/10/28 16:35:45;;;;;;;0.50;0.40;;;13.80;99.90;;;;;;5093931;28;20439;-78
2021/10/28 16:38:12;;;;;;;3.80;3.50;;;13.80;99.90;;;;;;5094179;28;20532;-78
2021/10/28 16:40:39;;;;;;;0.97;0.97;;;13.70;99.90;;;;;;5093234;28;20793;-78
2021/10/28 16:43:06;;;;;;;0.50;0.50;;;13.60;99.90;;;;;;5093180;28;20925;-79
2021/10/28 16:45:33;;;;;;;1.57;1.47;;;13.50;99.90;;;;;;5093192;28;20435;-77
2021/10/28 16:48:00;;;;;;;1.07;1.07;;;13.50;99.90;;;;;;5093584;28;20467;-78
2021/10/28 16:50:27;;;;;;;0.80;0.60;;;13.40;99.90;;;;;;5092611;28;20479;-77
2021/10/28 16:52:55;;;;;;;2.80;1.83;;;13.40;99.90;;;;;;5093254;28;20955;-78
2021/10/28 16:55:22;;;;;;;0.63;0.63;;;13.30;99.90;;;;;;5093089;28;20450;-78
2021/10/28 16:57:48;;;;;;;0.60;0.57;;;13.20;99.90;;;;;;5094792;28;20460;-78
2021/10/28 17:00:17;;;;;;;1.37;1.27;;;13.20;99.90;;;;;;4383613;28;10000806;-78
2021/10/28 17:02:44;;;;;;;2.13;2.03;;;13.10;99.90;;;;;;5093260;28;20215;-78
2021/10/28 17:05:12;;;;;;;1.63;1.17;;;13.00;99.90;;;;;;5091295;28;20432;-79
2021/10/28 17:07:39;;;;;;;1.57;1.50;;;13.00;99.90;;;;;;5092054;28;20504;-77
2021/10/28 17:10:08;;;;;;;0.70;0.70;;;12.90;99.90;;;;;;5091310;28;20487;-76
2021/10/28 17:12:36;;;;;;;0.60;0.50;;;12.90;99.90;;;;;;5091395;28;20251;-77
2021/10/28 17:15:04;;;;;;;5.40;2.97;;;12.80;99.90;;;;;;5091613;28;20801;-78
2021/10/28 17:17:31;;;;;;;4.37;1.63;;;12.80;99.90;;;;;;5091288;28;20223;-78
2021/10/28 17:20:04;;;;;;;0.50;0.40;;;12.70;99.90;;;;;;5091326;28;21012;-78
2021/10/28 17:22:31;;;;;;;0.50;0.40;;;12.70;99.90;;;;;;5091317;28;20442;-78
2021/10/28 17:24:59;;;;;;;2.57;1.80;;;12.60;99.90;;;;;;5090757;28;20439;-77
2021/10/28 17:27:28;;;;;;;1.27;1.03;;;12.60;99.90;;;;;;5091186;28;20880;-75
2021/10/28 17:29:54;;;;;;;0.70;0.60;;;12.50;99.90;;;;;;5091032;28;20487;-78
2021/10/28 17:32:21;;;;;;;1.90;1.80;;;12.50;99.90;;;;;;5089850;28;20439;-78
2021/10/28 17:34:48;;;;;;;2.67;2.30;;;12.50;99.90;;;;;;5088136;28;20198;-76
2021/10/28 17:37:15;;;;;;;1.90;1.23;;;12.50;99.90;;;;;;5090494;28;20463;-78
2021/10/28 17:39:42;;;;;;;3.03;2.80;;;12.40;99.90;;;;;;5090904;28;20434;-78
2021/10/28 17:42:10;;;;;;;1.53;1.47;;;12.40;99.90;;;;;;5092334;28;20439;-77
2021/10/28 17:44:40;;;;;;;0.50;0.40;;;12.30;99.90;;;;;;5094806;28;20861;-76
2021/10/28 17:47:11;;;;;;;2.67;2.00;;;12.30;99.90;;;;;;5095966;28;20238;-78
2021/10/28 17:49:38;;;;;;;1.15;1.15;;;12.30;99.90;;;;;;5095141;28;20980;-76
2021/10/28 17:52:06;;;;;;;2.30;2.20;;;12.20;99.90;;;;;;5093436;28;20647;-78
2021/10/28 17:54:33;;;;;;;0.50;0.40;;;12.20;99.90;;;;;;5094246;28;20681;-78
2021/10/28 17:57:00;;;;;;;4.30;3.53;;;12.10;99.90;;;;;;5094775;28;20256;-78
2021/10/28 17:59:27;;;;;;;0.80;0.80;;;12.10;99.90;;;;;;5095569;28;20193;-78
2021/10/28 18:01:56;;;;;;;1.70;1.05;;;12.10;99.90;;;;;;5095073;28;20442;-78
2021/10/28 18:04:23;;;;;;;6.28;2.90;;;12.10;99.90;;;;;;5095173;28;20803;-78
2021/10/28 18:06:50;;;;;;;3.13;1.80;;;12.10;99.90;;;;;;5091848;28;20702;-78
2021/10/28 18:09:18;;;;;;;1.45;1.13;;;12.00;99.90;;;;;;5092146;28;20510;-79
2021/10/28 18:11:45;;;;;;;1.60;1.15;;;12.00;99.90;;;;;;5091767;28;20285;-79
2021/10/28 18:14:15;;;;;;;7.30;3.33;;;12.00;99.90;;;;;;5092155;28;20196;-78
2021/10/28 18:16:42;;;;;;;4.30;3.17;;;12.00;99.90;;;;;;5091879;28;20449;-78
2021/10/28 18:19:11;;;;;;;1.63;1.50;;;11.90;99.90;;;;;;5091424;28;20196;-78
2021/10/28 18:21:41;;;;;;;0.82;0.82;;;11.90;99.90;;;;;;5092764;28;20209;-77
2021/10/28 18:24:09;;;;;;;1.98;0.75;;;11.90;99.90;;;;;;5092275;28;20176;-78
2021/10/28 18:26:35;;;;;;;1.15;1.05;;;11.90;99.90;;;;;;5091885;28;20235;-77
2021/10/28 18:29:03;;;;;;;1.17;1.17;;;11.90;99.90;;;;;;5092951;28;20209;-78
2021/10/28 18:31:30;;;;;;;0.75;0.75;;;11.80;99.90;;;;;;5093905;28;20242;-79
2021/10/28 18:33:57;;;;;;;1.58;1.55;;;11.80;99.90;;;;;;5097921;28;20737;-78
2021/10/28 18:36:26;;;;;;;0.80;0.80;;;11.70;99.90;;;;;;5095367;28;20201;-75
2021/10/28 18:38:55;;;;;;;4.77;2.67;;;11.80;99.90;;;;;;5097404;28;20201;-78
2021/10/28 18:41:22;;;;;;;3.33;3.03;;;11.70;99.90;;;;;;5097810;28;20444;-78
2021/10/28 18:43:49;;;;;;;2.05;1.08;;;11.70;99.90;;;;;;5100627;28;20447;-78
2021/10/28 18:46:20;;;;;;;1.58;1.40;;;11.70;99.90;;;;;;5099192;28;20223;-78
2021/10/28 18:48:47;;;;;;;6.47;3.15;;;11.70;99.90;;;;;;5099673;28;20306;-77
2021/10/28 18:51:15;;;;;;;2.05;1.95;;;11.60;99.90;;;;;;5101665;28;20220;-79
2021/10/28 18:53:45;;;;;;;0.60;0.57;;;11.70;99.90;;;;;;5103125;28;20199;-79
2021/10/28 18:56:12;;;;;;;0.50;0.50;;;11.60;99.90;;;;;;5096918;28;20253;-79
2021/10/28 18:58:39;;;;;;;1.23;1.13;;;11.60;99.90;;;;;;5096455;28;20251;-79
2021/10/28 19:01:06;;;;;;;0.50;0.40;;;11.60;99.90;;;;;;5096880;28;20447;-80
2021/10/28 19:03:33;;;;;;;0.60;0.60;;;11.60;99.90;;;;;;5096876;28;20446;-79
2021/10/28 19:06:02;;;;;;;0.60;0.57;;;11.60;99.90;;;;;;5096789;28;20444;-79
2021/10/28 19:08:29;;;;;;;0.50;0.40;;;11.60;99.90;;;;;;5095967;28;20274;-78
2021/10/28 19:10:57;;;;;;;4.25;3.97;;;11.50;99.90;;;;;;5095775;28;20219;-81
2021/10/28 19:13:24;;;;;;;4.13;2.15;;;11.50;99.90;;;;;;5095185;28;20196;-80
2021/10/28 19:15:50;;;;;;;3.92;1.75;;;11.50;99.90;;;;;;5093340;28;20656;-80
2021/10/28 19:18:17;;;;;;;2.47;0.95;;;11.50;99.90;;;;;;5095927;28;20213;-78
2021/10/28 19:20:44;;;;;;;0.60;0.50;;;11.50;99.90;;;;;;5095594;28;20287;-80
2021/10/28 19:23:11;;;;;;;1.23;0.98;;;11.50;99.90;;;;;;5096030;28;20216;-80
2021/10/28 19:25:38;;;;;;;0.82;0.82;;;11.50;99.90;;;;;;5096359;28;20193;-76
2021/10/28 19:28:08;;;;;;;0.88;0.88;;;11.50;99.90;;;;;;5094481;28;20225;-78
2021/10/28 19:30:37;;;;;;;0.57;0.50;;;11.40;99.90;;;;;;5083993;28;20216;-80
2021/10/28 19:33:09;;;;;;;1.92;1.85;;;11.40;99.90;;;;;;5094733;28;20537;-79
2021/10/28 19:35:38;;;;;;;1.35;0.63;;;11.40;99.90;;;;;;5095864;28;20676;-79
2021/10/28 19:38:12;;;;;;;0.85;0.82;;;11.40;99.90;;;;;;5096722;28;20307;-79
2021/10/28 19:40:53;;;;;;;0.60;0.40;;;11.40;99.90;;;;;;5096201;28;20219;-81
2021/10/28 19:48:40;;;;;;;0.50;0.40;;;11.40;99.90;;;;;;5094974;28;20338;-79
2021/10/28 19:51:08;;;;;;;1.45;1.35;;;11.30;99.90;;;;;;5093391;28;20248;-80
2021/10/28 19:53:35;;;;;;;1.23;0.95;;;11.30;99.90;;;;;;5094881;28;20191;-80
2021/10/28 19:56:13;;;;;;;0.68;0.50;;;11.30;99.90;;;;;;5094263;28;20202;-79
2021/10/28 19:58:45;;;;;;;2.35;2.15;;;11.30;99.90;;;;;;5095818;28;20636;-81
2021/10/28 20:01:22;;;;;;;1.58;1.13;;;11.30;99.90;;;;;;5095422;28;20257;-79
2021/10/28 20:04:11;;;;;;;8.13;2.15;;;11.30;99.90;;;;;;5096276;28;20188;-79
2021/10/28 20:06:47;;;;;;;1.75;0.85;;;11.30;99.90;;;;;;5096197;28;20204;-81
2021/10/28 20:20:15;;;;;;;1.70;1.60;;;11.30;99.90;;;;;;5095795;28;20176;-79
2021/10/28 20:22:45;;;;;;;0.80;0.80;;;11.30;99.90;;;;;;5095589;28;20222;-78
2021/10/28 20:25:13;;;;;;;3.92;3.17;;;11.20;99.90;;;;;;5094601;28;20193;-80
2021/10/28 20:27:41;;;;;;;1.15;1.05;;;11.20;99.90;;;;;;5094716;28;20209;-79
2021/10/28 20:30:11;;;;;;;0.50;0.40;;;11.20;99.90;;;;;;5095780;28;20566;-79
2021/10/28 20:32:38;;;;;;;3.85;3.03;;;11.20;99.90;;;;;;5095573;28;20353;-78
2021/10/28 20:35:15;;;;;;;2.00;1.60;;;11.20;99.90;;;;;;5094863;28;20200;-79
2021/10/28 20:37:44;;;;;;;0.70;0.70;;;11.20;99.90;;;;;;5095453;28;20779;-79
2021/10/28 20:40:13;;;;;;;3.00;2.75;;;11.20;99.90;;;;;;5094746;28;20197;-80
2021/10/28 20:42:41;;;;;;;1.40;0.82;;;11.20;99.90;;;;;;5094580;28;20201;-79
2021/10/28 20:45:12;;;;;;;1.92;1.60;;;11.20;99.90;;;;;;5095121;28;20257;-80
2021/10/28 20:47:41;;;;;;;3.28;2.97;;;11.30;99.90;;;;;;5094819;28;20217;-79
2021/10/28 20:50:10;;;;;;;1.95;1.08;;;11.20;99.90;;;;;;5094241;28;20304;-80
2021/10/28 20:52:37;;;;;;;1.50;1.40;;;11.20;99.90;;;;;;5094662;28;20625;-79
2021/10/28 20:55:05;;;;;;;1.88;1.77;;;11.20;99.90;;;;;;5095779;28;20196;-80